This is the latest recevied weather packets stored in our database for station/object OE7BJT-13. If no packets are shown the sender has not sent any weather packets the latest 10 day(s).
| Time | Temp. | Humidity | Pressure | Rain* | Wind** | Luminosity | Snow |
|---|---|---|---|---|---|---|---|
| 1777856441 | 11.67° C | 72% | 1015 hPa | - | - | - | - |
| 1777855836 | 11.67° C | 73% | 1015 hPa | - | - | - | - |
| 1777855230 | 11.67° C | 70% | 1015 hPa | - | - | - | - |
| 1777854625 | 11.67° C | 69% | 1015 hPa | - | - | - | - |
| 1777854019 | 11.67° C | 71% | 1015 hPa | - | - | - | - |
| 1777853413 | 12.22° C | 68% | 1015 hPa | - | - | - | - |
| 1777852808 | 11.67° C | 70% | 1015 hPa | - | - | - | - |
| 1777852202 | 12.22° C | 65% | 1015 hPa | - | - | - | - |
| 1777851597 | 12.78° C | 62% | 1015 hPa | - | - | - | - |
| 1777850385 | 12.78° C | 60% | 1015 hPa | - | - | - | - |
| 1777849780 | 12.78° C | 62% | 1015 hPa | - | - | - | - |
| 1777849174 | 12.78° C | 62% | 1015 hPa | - | - | - | - |
| 1777848569 | 13.33° C | 58% | 1015 hPa | - | - | - | - |
| 1777847963 | 13.89° C | 53% | 1015 hPa | - | - | - | - |
| 1777847357 | 13.33° C | 60% | 1015 hPa | - | - | - | - |
| 1777846752 | 13.33° C | 58% | 1015 hPa | - | - | - | - |
| 1777846146 | 13.89° C | 56% | 1015 hPa | - | - | - | - |
| 1777845541 | 13.89° C | 55% | 1014 hPa | - | - | - | - |
| 1777844935 | 14.44° C | 52% | 1015 hPa | - | - | - | - |
| 1777844329 | 14.44° C | 53% | 1014 hPa | - | - | - | - |
| 1777842513 | 15.56° C | 47% | 1014 hPa | - | - | - | - |
| 1777841907 | 15.56° C | 46% | 1014 hPa | - | - | - | - |
| 1777841301 | 15.56° C | 48% | 1014 hPa | - | - | - | - |
| 1777840090 | 17.22° C | 39% | 1014 hPa | - | - | - | - |
| 1777839485 | 16.67° C | 43% | 1014 hPa | - | - | - | - |
* Rain since midnight (hover to see other rain measurements)
** Current wind speed in m/s (hover to see current wind gust speed)